createdAt,value
2022-12-31T00:00:38.914Z,3.90
2022-12-31T00:03:09.800Z,3.90
2022-12-31T00:05:37.647Z,3.15
2022-12-31T00:08:05.193Z,15.82
2022-12-31T00:10:39.807Z,5.20
2022-12-31T00:13:12.083Z,3.58
2022-12-31T00:15:41.205Z,4.03
2022-12-31T00:18:09.322Z,3.75
2022-12-31T00:20:42.721Z,4.72
2022-12-31T00:23:11.514Z,3.95
2022-12-31T00:25:38.965Z,3.72
2022-12-31T00:28:06.323Z,4.35
2022-12-31T00:30:34.714Z,3.30
2022-12-31T00:33:01.961Z,3.63
2022-12-31T00:35:29.391Z,4.40
2022-12-31T00:37:56.635Z,3.50
2022-12-31T00:40:23.905Z,3.92
2022-12-31T00:42:51.221Z,3.78
2022-12-31T00:45:18.443Z,3.10
2022-12-31T00:47:45.684Z,3.38
2022-12-31T00:50:13.144Z,3.22
2022-12-31T00:52:40.338Z,3.97
2022-12-31T00:55:08.522Z,4.03
2022-12-31T00:57:35.791Z,4.03
2022-12-31T01:00:04.065Z,4.70
2022-12-31T01:02:31.710Z,4.97
2022-12-31T01:04:58.985Z,4.40
2022-12-31T01:07:26.317Z,4.93
2022-12-31T01:09:53.904Z,5.05
2022-12-31T01:12:21.183Z,5.70
2022-12-31T01:14:48.436Z,3.78
2022-12-31T01:17:17.258Z,3.53
2022-12-31T01:19:44.524Z,4.07
2022-12-31T01:22:11.824Z,3.40
2022-12-31T01:24:39.123Z,2.95
2022-12-31T01:27:06.437Z,2.67
2022-12-31T01:29:33.797Z,2.33
2022-12-31T01:32:01.036Z,2.47
2022-12-31T01:34:28.296Z,2.15
2022-12-31T01:36:55.527Z,10.85
2022-12-31T01:39:22.791Z,6.40
2022-12-31T01:41:50.095Z,2.70
2022-12-31T01:44:26.544Z,2.00
2022-12-31T01:47:04.175Z,1.92
2022-12-31T01:49:44.743Z,2.00
2022-12-31T01:52:32.661Z,1.85
2022-12-31T01:55:16.513Z,1.60
2022-12-31T01:57:48.139Z,2.10
2022-12-31T02:00:16.725Z,1.70
2022-12-31T02:02:44.833Z,1.63
2022-12-31T02:05:49.550Z,2.05
2022-12-31T02:08:18.101Z,1.98
2022-12-31T02:10:48.479Z,2.03
2022-12-31T02:13:16.315Z,1.70
2022-12-31T02:15:50.193Z,1.45
2022-12-31T02:18:39.301Z,1.50
2022-12-31T02:21:28.988Z,1.48
2022-12-31T02:24:55.459Z,1.20
2022-12-31T02:28:32.627Z,1.20
2022-12-31T02:31:18.861Z,1.00
2022-12-31T02:34:05.315Z,1.20
2022-12-31T02:36:42.777Z,1.50
2022-12-31T02:39:13.385Z,1.38
2022-12-31T02:41:53.753Z,1.27
2022-12-31T02:44:32.241Z,1.55
2022-12-31T02:47:32.242Z,1.63
2022-12-31T02:50:31.962Z,1.70
2022-12-31T02:53:41.057Z,1.75
2022-12-31T02:56:28.099Z,2.15
2022-12-31T02:59:41.650Z,1.85
2022-12-31T03:02:16.925Z,1.70
2022-12-31T03:04:56.436Z,1.75
2022-12-31T03:07:33.006Z,1.50
2022-12-31T03:10:01.359Z,1.60
2022-12-31T03:12:48.942Z,2.08
2022-12-31T03:15:33.206Z,1.95
2022-12-31T03:18:17.987Z,1.98
2022-12-31T03:21:09.432Z,2.05
2022-12-31T03:23:50.261Z,2.10
2022-12-31T03:26:17.549Z,2.20
2022-12-31T03:28:48.052Z,2.70
2022-12-31T03:31:16.460Z,2.10
2022-12-31T03:33:43.866Z,2.72
2022-12-31T03:36:15.449Z,2.45
2022-12-31T03:38:42.792Z,2.90
2022-12-31T03:41:11.909Z,2.95
2022-12-31T03:43:39.299Z,2.20
2022-12-31T03:46:06.833Z,2.75
2022-12-31T03:48:34.219Z,2.80
2022-12-31T03:51:01.402Z,3.97
2022-12-31T03:53:28.624Z,4.70
2022-12-31T03:55:55.912Z,4.60
2022-12-31T03:58:23.293Z,5.63
2022-12-31T04:00:51.195Z,5.93
2022-12-31T04:03:19.492Z,5.85
2022-12-31T04:05:55.323Z,5.53
2022-12-31T04:08:23.102Z,4.25
2022-12-31T04:10:50.792Z,4.93
2022-12-31T04:13:18.113Z,5.68
2022-12-31T04:15:45.854Z,7.60
2022-12-31T04:18:14.402Z,6.88
2022-12-31T04:20:41.559Z,6.95
2022-12-31T04:23:08.798Z,6.55
2022-12-31T04:25:36.015Z,5.97
2022-12-31T04:28:03.384Z,5.75
2022-12-31T04:30:30.560Z,4.22
2022-12-31T04:32:57.932Z,3.88
2022-12-31T04:35:25.461Z,3.70
2022-12-31T04:37:52.717Z,4.13
2022-12-31T04:40:19.971Z,3.40
2022-12-31T04:42:47.145Z,5.15
2022-12-31T04:45:14.396Z,4.47
2022-12-31T04:47:41.573Z,4.38
2022-12-31T04:50:10.390Z,5.07
2022-12-31T04:52:42.665Z,3.83
2022-12-31T04:55:11.005Z,4.13
2022-12-31T04:57:38.246Z,3.30
2022-12-31T05:00:06.659Z,4.20
2022-12-31T05:02:34.069Z,3.92
2022-12-31T05:05:01.447Z,3.17
2022-12-31T05:07:28.633Z,4.57
2022-12-31T05:09:55.927Z,4.35
2022-12-31T05:12:23.197Z,4.03
2022-12-31T05:14:50.387Z,3.58
2022-12-31T05:17:17.635Z,3.45
2022-12-31T05:19:44.856Z,3.65
2022-12-31T05:22:30.184Z,3.35
2022-12-31T05:25:01.266Z,3.00
2022-12-31T05:27:31.237Z,2.90
2022-12-31T05:29:59.823Z,4.30
2022-12-31T05:32:27.344Z,3.80
2022-12-31T05:34:54.706Z,4.78
2022-12-31T05:37:22.010Z,4.38
2022-12-31T05:39:49.438Z,5.43
2022-12-31T05:42:16.699Z,4.55
2022-12-31T05:44:44.050Z,4.70
2022-12-31T05:47:11.364Z,5.20
2022-12-31T05:49:38.693Z,5.57
2022-12-31T05:52:06.739Z,3.90
2022-12-31T05:54:34.405Z,5.03
2022-12-31T05:57:01.726Z,3.83
2022-12-31T05:59:30.094Z,4.03
2022-12-31T06:01:57.920Z,3.88
2022-12-31T06:04:25.651Z,4.15
2022-12-31T06:06:53.104Z,3.60
2022-12-31T06:09:21.054Z,3.40
2022-12-31T06:11:49.504Z,3.28
2022-12-31T06:14:17.471Z,3.83
2022-12-31T06:16:44.659Z,4.50
2022-12-31T06:19:12.025Z,3.63
2022-12-31T06:21:39.290Z,3.65
2022-12-31T06:24:07.343Z,3.65
2022-12-31T06:26:34.874Z,2.55
2022-12-31T06:29:04.924Z,3.00
2022-12-31T06:31:32.336Z,2.13
2022-12-31T06:34:00.511Z,2.20
2022-12-31T06:36:27.947Z,1.52
2022-12-31T06:38:55.505Z,1.48
2022-12-31T06:41:22.896Z,1.52
2022-12-31T06:43:50.164Z,1.50
2022-12-31T06:46:21.914Z,1.20
2022-12-31T06:48:49.243Z,1.42
2022-12-31T06:51:21.077Z,1.65
2022-12-31T06:53:51.647Z,1.73
2022-12-31T06:56:33.843Z,1.20
2022-12-31T06:59:03.424Z,1.25
2022-12-31T07:02:09.844Z,1.20
2022-12-31T07:05:22.478Z,1.30
2022-12-31T07:08:31.429Z,1.40
2022-12-31T07:11:52.623Z,1.88
2022-12-31T07:14:46.403Z,1.10
2022-12-31T07:17:43.567Z,1.20
2022-12-31T07:20:16.499Z,1.50
2022-12-31T07:22:46.109Z,1.90
2022-12-31T07:25:18.999Z,2.15
2022-12-31T07:28:35.262Z,1.73
2022-12-31T07:31:33.884Z,1.58
2022-12-31T07:34:36.887Z,1.58
2022-12-31T07:37:34.841Z,1.40
2022-12-31T07:40:42.711Z,1.38
2022-12-31T07:44:00.549Z,1.70
2022-12-31T07:46:44.745Z,1.90
2022-12-31T07:49:14.003Z,1.73
2022-12-31T07:51:42.792Z,1.40
2022-12-31T07:54:14.204Z,1.70
2022-12-31T07:56:43.944Z,1.88
2022-12-31T08:00:01.132Z,1.45
2022-12-31T08:02:53.533Z,1.95
2022-12-31T08:06:09.172Z,1.67
2022-12-31T08:09:39.543Z,1.77
2022-12-31T08:12:09.081Z,1.55
2022-12-31T08:14:47.908Z,1.38
2022-12-31T08:17:18.959Z,2.45
2022-12-31T08:19:47.058Z,1.60
2022-12-31T08:23:01.577Z,2.10
2022-12-31T08:25:56.996Z,1.48
2022-12-31T08:29:19.110Z,1.45
2022-12-31T08:32:21.729Z,1.27
2022-12-31T08:35:31.361Z,1.38
2022-12-31T08:38:39.528Z,1.58
2022-12-31T08:41:43.429Z,1.35
2022-12-31T08:44:34.524Z,1.73
2022-12-31T08:47:35.510Z,1.40
2022-12-31T08:50:07.657Z,1.70
2022-12-31T08:52:35.527Z,1.40
2022-12-31T08:55:03.452Z,2.08
2022-12-31T08:57:50.562Z,1.40
2022-12-31T09:00:20.577Z,1.35
2022-12-31T09:02:59.616Z,1.40
2022-12-31T09:05:43.381Z,1.58
2022-12-31T09:09:01.267Z,1.35
2022-12-31T09:12:12.186Z,1.40
2022-12-31T09:15:06.398Z,1.63
2022-12-31T09:17:51.072Z,1.83
2022-12-31T09:20:42.172Z,1.67
2022-12-31T09:23:12.140Z,1.73
2022-12-31T09:26:21.580Z,1.50
2022-12-31T09:29:14.729Z,1.85
2022-12-31T09:32:34.351Z,1.42
2022-12-31T09:35:25.694Z,1.55
2022-12-31T09:38:31.677Z,1.80
2022-12-31T09:41:44.736Z,1.70
2022-12-31T09:44:55.501Z,2.60
2022-12-31T09:48:28.159Z,1.83
2022-12-31T09:51:12.548Z,1.80
2022-12-31T09:54:15.852Z,2.13
2022-12-31T09:57:53.507Z,1.90
2022-12-31T10:01:21.586Z,1.92
2022-12-31T10:04:56.381Z,2.38
2022-12-31T10:08:00.854Z,1.95
2022-12-31T10:10:50.069Z,2.80
2022-12-31T10:14:49.100Z,2.50
2022-12-31T10:18:14.348Z,1.70
2022-12-31T10:21:02.074Z,1.83
2022-12-31T10:24:08.765Z,2.10
2022-12-31T10:27:14.159Z,1.65
2022-12-31T10:30:11.462Z,2.28
2022-12-31T10:33:10.595Z,3.35
2022-12-31T10:36:19.031Z,2.55
2022-12-31T10:39:28.263Z,3.03
2022-12-31T10:42:40.377Z,2.70
2022-12-31T10:46:22.801Z,2.83
2022-12-31T10:49:22.259Z,2.95
2022-12-31T10:52:41.509Z,3.22
2022-12-31T10:56:00.132Z,2.53
2022-12-31T10:58:42.180Z,3.03
2022-12-31T11:01:30.576Z,2.78
2022-12-31T11:05:05.402Z,2.65
2022-12-31T11:07:41.426Z,3.00
2022-12-31T11:10:42.797Z,2.30
2022-12-31T11:14:26.443Z,2.78
2022-12-31T11:17:21.223Z,3.30
2022-12-31T11:20:29.421Z,2.42
2022-12-31T11:23:30.917Z,2.60
2022-12-31T11:26:46.696Z,2.95
2022-12-31T11:29:57.882Z,2.50
2022-12-31T11:33:14.004Z,2.28
2022-12-31T11:36:30.381Z,2.58
2022-12-31T11:40:01.552Z,2.17
2022-12-31T11:43:04.908Z,2.72
2022-12-31T11:46:16.864Z,2.88
2022-12-31T11:48:52.753Z,2.15
2022-12-31T11:51:52.490Z,3.17
2022-12-31T11:55:25.910Z,2.85
2022-12-31T11:57:54.683Z,2.55
2022-12-31T12:00:26.744Z,2.20
2022-12-31T12:03:06.041Z,2.67
2022-12-31T12:05:35.504Z,4.32
2022-12-31T12:08:03.320Z,2.58
2022-12-31T12:10:52.681Z,3.42
2022-12-31T12:13:28.163Z,3.17
2022-12-31T12:16:02.659Z,3.55
2022-12-31T12:18:47.754Z,3.03
2022-12-31T12:21:25.404Z,2.60
2022-12-31T12:24:16.868Z,2.92
2022-12-31T12:26:45.521Z,3.42
2022-12-31T12:29:26.520Z,2.88
2022-12-31T12:32:25.618Z,2.80
2022-12-31T12:34:53.830Z,2.92
2022-12-31T12:37:34.497Z,3.08
2022-12-31T12:40:22.111Z,2.85
2022-12-31T12:42:52.756Z,3.05
2022-12-31T12:45:36.420Z,2.53
2022-12-31T12:48:31.324Z,2.75
2022-12-31T12:51:00.043Z,2.80
2022-12-31T12:53:54.879Z,3.00
2022-12-31T12:56:47.072Z,2.60
2022-12-31T12:59:51.738Z,2.60
2022-12-31T13:03:07.247Z,2.83
2022-12-31T13:06:26.239Z,2.83
2022-12-31T13:09:55.003Z,2.17
2022-12-31T13:13:22.133Z,3.43
2022-12-31T13:15:47.696Z,2.78
2022-12-31T13:18:54.875Z,3.60
2022-12-31T13:21:59.801Z,2.53
2022-12-31T13:24:52.227Z,2.85
2022-12-31T13:27:45.064Z,3.25
2022-12-31T13:30:36.968Z,3.30
2022-12-31T13:33:26.465Z,3.17
2022-12-31T13:36:02.048Z,3.88
2022-12-31T13:38:34.134Z,2.65
2022-12-31T13:41:45.335Z,2.92
2022-12-31T13:44:32.163Z,3.03
2022-12-31T13:47:27.462Z,2.40
2022-12-31T13:50:26.756Z,2.90
2022-12-31T13:53:07.129Z,3.13
2022-12-31T13:55:56.705Z,3.35
2022-12-31T13:59:20.736Z,3.28
2022-12-31T14:02:18.986Z,2.90
2022-12-31T14:04:58.580Z,3.00
2022-12-31T14:07:57.114Z,3.05
2022-12-31T14:11:24.408Z,3.83
2022-12-31T14:14:54.705Z,4.05
2022-12-31T14:17:47.960Z,2.80
2022-12-31T14:20:52.360Z,3.53
2022-12-31T14:23:59.142Z,3.10
2022-12-31T14:26:50.377Z,3.97
2022-12-31T14:29:29.899Z,4.32
2022-12-31T14:32:48.099Z,4.18
2022-12-31T14:35:55.140Z,3.22
2022-12-31T14:39:02.092Z,4.22
2022-12-31T14:42:12.239Z,3.65
2022-12-31T14:45:00.185Z,3.70
2022-12-31T14:48:21.558Z,4.55
2022-12-31T14:50:50.018Z,3.53
2022-12-31T14:53:28.408Z,4.10
2022-12-31T14:56:29.534Z,4.00
2022-12-31T14:59:02.479Z,4.47
2022-12-31T15:01:30.596Z,4.60
2022-12-31T15:03:58.737Z,4.43
2022-12-31T15:06:47.209Z,3.45
2022-12-31T15:10:21.877Z,4.55
2022-12-31T15:13:19.955Z,4.13
2022-12-31T15:16:07.976Z,12.55
2022-12-31T15:19:16.222Z,5.47
2022-12-31T15:22:33.615Z,5.57
2022-12-31T15:25:01.561Z,12.77
2022-12-31T15:27:38.502Z,4.75
2022-12-31T15:32:46.710Z,3.63
2022-12-31T15:35:20.910Z,3.88
2022-12-31T15:38:11.341Z,3.88
2022-12-31T15:40:51.935Z,4.35
2022-12-31T15:43:25.254Z,3.72
2022-12-31T15:45:56.691Z,3.53
2022-12-31T15:48:55.433Z,4.28
2022-12-31T15:52:01.357Z,4.18
2022-12-31T15:54:43.016Z,4.80
2022-12-31T15:57:29.857Z,4.47
2022-12-31T16:00:06.076Z,6.07
2022-12-31T16:02:33.602Z,6.70
2022-12-31T16:05:01.191Z,7.50
2022-12-31T16:07:29.414Z,4.50
2022-12-31T16:10:04.168Z,6.95
2022-12-31T16:12:44.137Z,4.95
2022-12-31T16:15:26.361Z,4.20
2022-12-31T16:18:20.595Z,4.43
2022-12-31T16:20:51.983Z,4.88
2022-12-31T16:23:30.228Z,4.38
2022-12-31T16:26:05.429Z,3.22
2022-12-31T16:28:35.468Z,3.50
2022-12-31T16:31:16.805Z,4.65
2022-12-31T16:33:46.466Z,4.68
2022-12-31T16:36:24.092Z,5.53
2022-12-31T16:38:52.390Z,4.93
2022-12-31T16:41:22.135Z,5.05
2022-12-31T16:43:50.949Z,4.82
2022-12-31T16:46:30.959Z,6.03
2022-12-31T16:49:21.187Z,6.47
2022-12-31T16:51:49.665Z,13.63
2022-12-31T16:54:44.040Z,6.15
2022-12-31T16:57:24.676Z,5.30
2022-12-31T17:00:04.443Z,6.18
2022-12-31T17:02:47.768Z,7.07
2022-12-31T17:05:26.562Z,7.03
2022-12-31T17:07:53.997Z,8.70
2022-12-31T17:10:34.461Z,7.35
2022-12-31T17:13:30.204Z,7.32
2022-12-31T17:16:00.511Z,6.47
2022-12-31T17:18:38.545Z,7.93
2022-12-31T17:21:11.012Z,8.45
2022-12-31T17:23:41.021Z,10.77
2022-12-31T17:26:23.722Z,13.00
2022-12-31T17:28:55.370Z,12.48
2022-12-31T17:31:57.086Z,11.40
2022-12-31T17:34:31.020Z,7.07
2022-12-31T17:37:14.458Z,6.20
2022-12-31T17:39:55.352Z,7.80
2022-12-31T17:42:38.055Z,8.98
2022-12-31T17:45:22.336Z,7.13
2022-12-31T17:47:53.729Z,15.52
2022-12-31T17:50:28.629Z,8.07
2022-12-31T17:53:12.089Z,8.80
2022-12-31T17:55:45.432Z,6.03
2022-12-31T17:58:30.039Z,7.60
2022-12-31T18:00:58.745Z,6.30
2022-12-31T18:03:26.218Z,7.90
2022-12-31T18:05:54.141Z,9.90
2022-12-31T18:08:21.411Z,7.20
2022-12-31T18:10:48.966Z,5.82
2022-12-31T18:13:23.064Z,6.60
2022-12-31T18:15:50.921Z,5.35
2022-12-31T18:18:25.320Z,6.90
2022-12-31T18:21:07.971Z,5.65
2022-12-31T18:23:46.749Z,5.10
2022-12-31T18:26:21.765Z,5.35
2022-12-31T18:28:50.624Z,5.50
2022-12-31T18:31:22.210Z,5.50
2022-12-31T18:33:52.038Z,4.80
2022-12-31T18:36:22.490Z,4.90
2022-12-31T18:38:50.635Z,6.53
2022-12-31T18:41:27.753Z,6.57
2022-12-31T18:43:55.996Z,5.75
2022-12-31T18:46:25.303Z,6.00
2022-12-31T18:48:52.768Z,5.95
2022-12-31T18:51:31.392Z,7.40
2022-12-31T18:54:01.963Z,6.82
2022-12-31T18:56:29.514Z,5.88
2022-12-31T18:58:56.785Z,6.65
2022-12-31T19:01:33.286Z,9.00
2022-12-31T19:04:27.124Z,5.70
2022-12-31T19:06:57.289Z,6.63
2022-12-31T19:09:44.751Z,7.15
2022-12-31T19:12:15.259Z,6.47
2022-12-31T19:14:42.960Z,8.00
2022-12-31T19:19:36.696Z,5.45
2022-12-31T19:22:03.976Z,5.75
2022-12-31T19:24:31.866Z,5.38
2022-12-31T19:27:01.864Z,5.03
2022-12-31T19:29:29.206Z,5.20
2022-12-31T19:31:58.138Z,5.28
2022-12-31T19:34:25.519Z,6.95
2022-12-31T19:36:52.722Z,5.88
2022-12-31T19:39:21.695Z,8.68
2022-12-31T19:41:56.399Z,6.63
2022-12-31T19:44:26.008Z,6.65
2022-12-31T19:46:53.245Z,6.85
2022-12-31T19:49:20.522Z,5.45
2022-12-31T19:51:47.781Z,6.03
2022-12-31T19:54:15.115Z,6.30
2022-12-31T19:56:42.363Z,4.60
2022-12-31T19:59:11.533Z,4.45
2022-12-31T20:01:39.259Z,5.05
2022-12-31T20:04:06.882Z,5.22
2022-12-31T20:06:34.211Z,19.75
2022-12-31T20:09:03.620Z,16.92
2022-12-31T20:11:31.286Z,5.70
2022-12-31T20:13:58.690Z,6.00
2022-12-31T20:16:33.750Z,6.65
2022-12-31T20:19:00.998Z,5.95
2022-12-31T20:21:29.910Z,5.22
2022-12-31T20:23:57.339Z,5.15
2022-12-31T20:26:26.653Z,5.90
2022-12-31T20:28:54.504Z,7.18
2022-12-31T20:31:26.696Z,5.63
2022-12-31T20:33:55.215Z,6.13
2022-12-31T20:36:23.805Z,8.32
2022-12-31T20:38:51.298Z,6.97
2022-12-31T20:41:22.919Z,6.10
2022-12-31T20:43:53.725Z,6.18
2022-12-31T20:46:28.448Z,6.07
2022-12-31T20:49:00.908Z,6.45
2022-12-31T20:51:31.621Z,5.53
2022-12-31T20:54:07.595Z,7.45
2022-12-31T20:56:40.175Z,6.03
2022-12-31T20:59:10.121Z,5.95
2022-12-31T21:02:18.920Z,6.15
2022-12-31T21:04:26.089Z,6.57
2022-12-31T21:06:53.599Z,4.97
2022-12-31T21:09:20.854Z,5.57
2022-12-31T21:12:06.665Z,6.55
2022-12-31T21:14:33.867Z,4.97
2022-12-31T21:17:02.184Z,6.45
2022-12-31T21:19:29.335Z,6.15
2022-12-31T21:21:56.508Z,7.60
2022-12-31T21:24:24.223Z,5.32
2022-12-31T21:26:56.693Z,6.32
2022-12-31T21:29:23.943Z,6.05
2022-12-31T21:31:51.329Z,4.55
2022-12-31T21:34:18.533Z,5.32
2022-12-31T21:36:45.794Z,6.47
2022-12-31T21:39:13.138Z,5.78
2022-12-31T21:41:52.525Z,5.78
2022-12-31T21:44:28.734Z,6.43
2022-12-31T21:47:39.454Z,5.90
2022-12-31T21:50:08.651Z,5.75
2022-12-31T21:52:36.508Z,4.82
2022-12-31T21:55:24.371Z,4.82
2022-12-31T21:58:24.669Z,5.72
2022-12-31T22:00:58.787Z,6.82
2022-12-31T22:03:29.110Z,5.75
2022-12-31T22:06:12.405Z,5.38
2022-12-31T22:08:42.888Z,7.53
2022-12-31T22:11:13.204Z,6.38
2022-12-31T22:13:41.198Z,5.13
2022-12-31T22:16:09.465Z,4.63
2022-12-31T22:18:40.811Z,5.20
2022-12-31T22:21:19.270Z,5.65
2022-12-31T22:23:53.227Z,5.10
2022-12-31T22:26:28.644Z,5.25
2022-12-31T22:28:59.804Z,4.53
2022-12-31T22:31:32.621Z,6.18
2022-12-31T22:34:00.176Z,6.13
2022-12-31T22:36:27.411Z,5.13
2022-12-31T22:38:58.579Z,4.47
2022-12-31T22:41:28.264Z,8.13
2022-12-31T22:44:03.718Z,5.45
2022-12-31T22:46:33.283Z,11.40
2022-12-31T22:49:03.556Z,6.72
2022-12-31T22:51:56.485Z,13.63
2022-12-31T22:54:19.510Z,15.32
2022-12-31T22:56:46.731Z,8.20
2022-12-31T22:59:14.121Z,16.88
2022-12-31T23:01:41.416Z,11.40
2022-12-31T23:04:09.659Z,113.22
2022-12-31T23:06:43.583Z,28.17
2022-12-31T23:09:37.061Z,54.30
2022-12-31T23:12:09.800Z,47.35
2022-12-31T23:14:56.729Z,42.90
2022-12-31T23:17:46.240Z,43.90
2022-12-31T23:20:38.329Z,70.32
2022-12-31T23:23:11.507Z,42.92
2022-12-31T23:25:52.835Z,34.72
2022-12-31T23:28:25.793Z,26.63
2022-12-31T23:30:53.869Z,24.88
2022-12-31T23:33:25.898Z,20.10
2022-12-31T23:36:06.991Z,28.77
2022-12-31T23:38:34.320Z,22.33
2022-12-31T23:41:11.647Z,31.42
2022-12-31T23:43:38.932Z,36.22
2022-12-31T23:46:06.486Z,57.42
2022-12-31T23:48:33.894Z,35.65
2022-12-31T23:51:01.127Z,24.77
2022-12-31T23:53:28.371Z,41.47
2022-12-31T23:55:55.705Z,33.22
2022-12-31T23:58:22.948Z,25.23
